NOAA-Style Climate Reports

Select a Year or Month report
2017: Jan Fev Mar Abr Mai Jun Jul Ago Set Out Nov Dez
2016: Jan Fev Mar Abr Mai Jun Jul Ago Set Out Nov Dez
2015: Jan Fev Mar Abr Mai Jun Jul Ago Set Out Nov Dez
2014: Jan Fev Mar Abr Mai Jun Jul Ago Set Out Nov Dez
2013: Jan Fev Mar Abr Mai Jun Jul Ago Set Out Nov Dez
2012: Jan Fev Mar Abr Mai Jun Jul Ago Set Out Nov Dez

Report for 2016 Novembro
                   Monthly Climatological Summary for nov 2016

Name: Estação Jardim Recreio   City: Ribeirão Preto   State: São Paulo
Elevation: 580 m  Lat: S 21° 10' 40"   Lon: W 047° 48' 36"

                  Temperature (°C), Rain (mm), Wind Speed (km/h)

                                      Heat  Cool        Avg
    Mean                              Deg   Deg         Wind                 Dom
Day Temp  High   Time   Low    Time   Days  Days  Rain  Speed High   Time    Dir
----------------------------------------------------------------------------------
 1  27,1  27,1   00:00  27,1   00:00   0,0   8,8   0,0  10,0  13,0   00:00    SE
 2  27,1  27,1   00:00  27,1   00:00   0,0   8,8   0,0  10,0  13,0   00:00    SE
 3  27,1  27,1   00:00  27,1   00:00   0,0   8,8   0,0  10,0  13,0   00:00    SE
 4  27,1  27,1   00:00  27,1   00:00   0,0   8,8   0,0  10,0  13,0   00:00    SE
 5  24,5  29,4   23:54  12,0   18:42   0,8   7,0 904,5   9,7  13,0   00:00    SE
 6  22,2  31,8   03:48  13,8   19:11   0,8   4,7   0,0   0,3  11,0   02:04   SSW
 7  30,5  32,6   19:08  27,1   19:05   0,0   7,9  34,0   0,1  11,0   09:00    SE
 8  32,6  32,6   00:00  32,6   00:00   0,0  14,3   0,3   0,0   0,0   00:00     E
 9  32,6  32,6   00:00  32,6   00:00   0,0  14,3   0,0   0,0   0,0   00:00     E
10  32,6  32,6   00:00  32,6   00:00   0,0  14,3   4,1   0,0   0,0   00:00     E
11  31,8  32,6   00:00  23,7   18:14   0,0  13,5   0,0   0,0  11,0   22:21   SSW
13  23,6  31,8   00:05  13,8   15:28   0,8   9,5  54,6   0,1  11,0   05:17   SSE
14  21,0  27,1   07:14  18,9   07:16   0,0   3,0   0,0   0,0   0,0   00:00     E
15  18,9  18,9   00:00  18,9   00:00   0,0   0,6   0,0   0,0   0,0   00:00     E
16  18,9  18,9   00:00  18,9   00:00   0,0   0,6   0,0   0,0   0,0   00:00     E
17  18,9  18,9   00:00  18,9   00:00   0,0   0,6   0,0   0,0   0,0   00:00     E
18  17,5  18,9   00:00  14,5   22:24   1,1   0,3 903,9   0,0   1,0   21:45     E
19  17,9  21,8   03:49  14,7   21:22   1,3   0,9   0,6   0,0   3,0   03:23     E
20  17,8  26,4   06:41  10,4   22:04   2,7   2,2   0,0   1,0  18,0   07:20     S
21  17,7  27,4   07:10   8,9   22:20   3,1   2,5   0,0   0,2  13,0   07:23   ESE
22  20,0  30,6   07:13  12,0   21:57   1,7   3,4   0,0   0,1   5,0   07:00     S
23  22,1  31,8   07:03  13,8   22:26   0,8   4,6   0,0   0,3  11,0   05:19   SSW
24  28,4  31,0   12:41  19,1   00:10   0,0   6,6   0,0   0,3  11,0   12:15    SE
25  26,5  27,1   14:22  22,9   20:55   0,0   9,7 898,2   0,0   0,0   00:00     E
26  22,9  22,9   00:00  22,9   00:00   0,0   4,6   0,0   0,0   0,0   00:00     E
27  22,9  22,9   00:00  22,9   00:00   0,0   4,6   0,0   0,0   0,0   00:00     E
28  22,9  22,9   00:00  22,9   00:00   0,0   4,6   0,0   0,0   0,0   00:00     E
29  22,9  22,9   00:00  22,9   00:00   0,0   4,6   0,0   0,0   0,0   00:00     E
30  22,9  22,9   00:00  22,9   00:00   0,0   4,6   0,0   0,0   0,0   00:00     E
----------------------------------------------------------------------------------
    24,1  32,6     7     8,9    21    13,1 178,72800,2   2,3  18,0    20      SE

Max >=  27,0: 18
Max <=   0,0:  0
Min <=   0,0:  0
Min <= -18,0:  0
Max Rain: 904,5 on day 5
Days of Rain: 8 (>= 0,2 mm)  6 (>= 2,0 mm)  5 (>= 20,0 mm)
Heat Base: 18,3  Cool Base: 18,3  Method: Integration